WetterOnline ( https://www.wetteronline.ch )

Wetter aktuell Aalen

Aktuelles Wetter: Geislingen/Stötten (737m)

6-stündlich | Neueste Meldungen
Ortszeit Temperatur Wetter
Di, 29.11. 1:00 3.4° C leichter Regen
Mo, 28.11. 19:00 2.9° C bedeckt
Mo, 28.11. 13:00 6.4° C bedeckt
Mo, 28.11. 7:00 0.0° C bedeckt
Mo, 28.11. 1:00 -0.9° C Nebel
So, 27.11. 19:00 -1.3° C Nebel
So, 27.11. 13:00 2.9° C wolkig
So, 27.11. 7:00 1.1° C wolkig
Ortszeit Temperatur Wetter
Di, 29.11. 6:30 4.2° C leichter Regen
Di, 29.11. 6:20 4.2° C leichter Regen
Di, 29.11. 6:10 4.2° C leichter Regen
Di, 29.11. 6:00 4.2° C leichter Regen
Di, 29.11. 5:50 4.2° C leichter Regen
Di, 29.11. 5:40 4.2° C leichter Regen
Di, 29.11. 5:30 4.2° C leichter Regen
Di, 29.11. 5:00 4.2° C leichter Regen
Di, 29.11. 4:30 4.2° C leichter Regen
Di, 29.11. 4:00 4.0° C leichter Regen
Di, 29.11. 3:30 4.0° C leichter Regen
Ortszeit Relative Feuchte Sichtweite
Di, 29.11. 1:00 99% 4.6 km
Mo, 28.11. 19:00 95% 7 km
Mo, 28.11. 13:00 71% 50 km
Mo, 28.11. 7:00 96% 26 km
Mo, 28.11. 1:00 100% 2.8 km
So, 27.11. 19:00 100% 0.3 km
So, 27.11. 13:00 73% 55 km
So, 27.11. 7:00 94% 35 km
Ortszeit Relative Feuchte Sichtweite
Di, 29.11. 6:30 100% <100 m
Di, 29.11. 6:20 100% -
Di, 29.11. 6:10 100% -
Di, 29.11. 6:00 100% <100 m
Di, 29.11. 5:50 100% -
Di, 29.11. 5:40 100% -
Di, 29.11. 5:30 100% 100 m
Di, 29.11. 5:00 100% <100 m
Di, 29.11. 4:30 100% <100 m
Di, 29.11. 4:00 100% 100 m
Di, 29.11. 3:30 100% 100 m
Ortszeit Niederschlagsmenge Niederschlagsart
Di, 29.11. 1:00 0.2 l/m2 in 6 Std. Regen
Mo, 28.11. 19:00 0.1 l/m2 in 12 Std. Regen
Mo, 28.11. 13:00 0.0 l/m2 in 6 Std. -
Mo, 28.11. 7:00 0.0 l/m2 in 12 Std. -
Mo, 28.11. 1:00 0.0 l/m2 in 6 Std. -
So, 27.11. 19:00 0.0 l/m2 in 12 Std. -
So, 27.11. 13:00 0.0 l/m2 in 6 Std. -
So, 27.11. 7:00 0.0 l/m2 in 12 Std. -
Ortszeit Niederschlagsmenge Niederschlagsart
Di, 29.11. 6:30 0.6 l/m2 in 1 Std. -
Di, 29.11. 6:20 keine Meldung -
Di, 29.11. 6:10 keine Meldung -
Di, 29.11. 6:00 0.7 l/m2 in 1 Std. Regen
Di, 29.11. 5:50 keine Meldung -
Di, 29.11. 5:40 keine Meldung -
Di, 29.11. 5:30 0.3 l/m2 in 1 Std. -
Di, 29.11. 5:00 0.3 l/m2 in 1 Std. Regen
Di, 29.11. 4:30 0.2 l/m2 in 1 Std. -
Di, 29.11. 4:00 0.3 l/m2 in 1 Std. Regen
Di, 29.11. 3:30 0.1 l/m2 in 1 Std. -
Ortszeit Stärke Spitze Richtung
km/h Bft. km/h Grad Sektor
Di, 29.11. 1:00 7 2 22 180° S
Mo, 28.11. 19:00 9 2 19 170° S
Mo, 28.11. 13:00 7 2 22 210° SW
Mo, 28.11. 7:00 15 3 28 160° S
Mo, 28.11. 1:00 13 3 30 130° SO
So, 27.11. 19:00 18 3 29 130° SO
So, 27.11. 13:00 14 3 25 150° SO
So, 27.11. 7:00 13 3 26 130° SO
Ortszeit Stärke Spitze Richtung
km/h Bft. km/h Grad Sektor
Di, 29.11. 6:30 11 2 22 280° W
Di, 29.11. 6:20 11 2 - 280° W
Di, 29.11. 6:10 14 3 - 280° W
Di, 29.11. 6:00 11 2 22 280° W
Di, 29.11. 5:50 11 2 - 280° W
Di, 29.11. 5:40 11 2 - 280° W
Di, 29.11. 5:30 11 2 20 280° W
Di, 29.11. 5:00 13 3 22 280° W
Di, 29.11. 4:30 15 3 22 280° W
Di, 29.11. 4:00 9 2 15 270° W
Di, 29.11. 3:30 11 2 14 280° W
Ortszeit Untergrenze Bedeckung Gattung
total tief tief mittel hoch
Di, 29.11. 1:00 180 m 8/8 8/8 - - -
Mo, 28.11. 19:00 1260 m 8/8 8/8 - - -
Mo, 28.11. 13:00 - 8/8 - - - -
Mo, 28.11. 7:00 3300 m 8/8 8/8 - - -
Mo, 28.11. 1:00 <30 m 7/8 0/8 - - -
So, 27.11. 19:00 <30 m 8/8 0/8 - - -
So, 27.11. 13:00 3600 m 5/8 5/8 - - -
So, 27.11. 7:00 10500 m 7/8 0/8 - - -
Ortszeit Bedeckungsgrad in Achtel und Wolkenuntergrenze
Di, 29.11. 6:30 8(<30m)
Di, 29.11. 6:20 8(<30m)
Di, 29.11. 6:10 8
Di, 29.11. 6:00 8(<30m)
Di, 29.11. 5:50 8(<30m)
Di, 29.11. 5:40 8
Di, 29.11. 5:30 8(<30m)
Di, 29.11. 5:00 8(<30m)
Di, 29.11. 4:30 8(<30m)
Di, 29.11. 4:00 8(<30m)
Di, 29.11. 3:30 8(<30m)
Ortszeit Luftdruck NN (hPa) Tendenz (hPa in 3 Std.)
Di, 29.11. 1:00 1015 - 0,1
Mo, 28.11. 19:00 1015 0,0
Mo, 28.11. 13:00 1014 - 0,1
Mo, 28.11. 7:00 1017 - 0,7
Mo, 28.11. 1:00 1019 - 1,3
So, 27.11. 19:00 1023 - 2,2
So, 27.11. 13:00 1026 - 1,6
So, 27.11. 7:00 1029 - 0,9
Ortszeit Luftdruck NN (hPa) Tendenz (hPa in 3 Std.)
Di, 29.11. 6:30 1015 + 0,7
Di, 29.11. 6:20 1015 keine Meldung
Di, 29.11. 6:10 1015 keine Meldung
Di, 29.11. 6:00 1015 + 0,5
Di, 29.11. 5:50 1015 keine Meldung
Di, 29.11. 5:40 1015 keine Meldung
Di, 29.11. 5:30 1015 + 0,2
Di, 29.11. 5:00 1015 + 0,3
Di, 29.11. 4:30 1015 + 0,2
Di, 29.11. 4:00 1015 + 0,1
Di, 29.11. 3:30 1015 - 0,2
Ortszeit Schneehöhe (cm)
Di, 29.11. 1:00 0
Mo, 28.11. 19:00 0
Mo, 28.11. 13:00 0
Mo, 28.11. 7:00 0
Mo, 28.11. 1:00 0
So, 27.11. 19:00 0
So, 27.11. 13:00 0
So, 27.11. 7:00 0
Ortszeit Schneehöhe (cm)
Di, 29.11. 6:30 0
Di, 29.11. 6:20 0
Di, 29.11. 6:10 0
Di, 29.11. 6:00 0
Di, 29.11. 5:50 0
Di, 29.11. 5:40 0
Di, 29.11. 5:30 0
Di, 29.11. 5:00 0
Di, 29.11. 4:30 0
Di, 29.11. 4:00 0
Di, 29.11. 3:30 0
Link zu dieser Seite / Seite empfehlen

Das Wetter in ...